Alejandro Ferreira

Scout - River Plate
3 Dez 2028
Sonntag
Verarbeitung

Persönlichkeit

Anpassungsfähigkeit (10) Ehrgeiz (19) Kontroverse (5) Loyalität (8) Druck (1) Professionalität (6) Fairness (16) Temperament (3)

Profil

Trainerstil Demokratisch
Lizenz Kontinentale Pro
Entschlossenheit 8
Menschenführung 8
Motivation 4
Disziplin 9
Arbeitszufriedenheit
75%
Ermüdung
0%
Rolle Scout
Gehalt 18.1K p/W
Vertrag 14.03.2030

Leistung

Verhalten Gut
Trainingseffektivität
24%
Spielerentwicklung
60%
Verletzungsprävention
45%
Taktische Umsetzung
25%

Letzte Ereignisse

Nahm an einer Scouting-Besprechung teil 7T her
Nahm an einer Scouting-Besprechung teil 14T her
Nahm an einer Scouting-Besprechung teil 21T her
Nahm an einer Scouting-Besprechung teil 28T her
Nahm an einer Scouting-Besprechung teil 35T her
Nahm an einer Scouting-Besprechung teil 42T her
Nahm an einer Scouting-Besprechung teil 49T her
Nahm an einer Scouting-Besprechung teil 56T her

Aktuell beobachtet

183
Spieler Verein Status Fähigkeit Vertrauen Beobachtet Zuletzt beobachtet Letzte Stimme
Luca Meirelles Kudrivka Aktiv 124 / 118 40% 1 20.06.2028 -
Jan Bürger Northampton Town Aktiv 128 / 125 40% 3 31.05.2028 -
Luka Vušković Tottenham Aktiv 157 / 153 40% 1 31.05.2028 -
Tyreece Campbell Charlton Athletic Aktiv 127 / 115 40% 8 28.05.2028 -
Mateo Elisseche Maipú Aktiv 75 / 76 40% 1 28.05.2028 -
Kiani Inge Groningen Aktiv 102 / 119 40% 1 26.05.2028 -
Aidomo Emakhu Oxford United Aktiv 143 / 137 40% 4 22.05.2028 -
Lorenzo De Leo Renate Aktiv 110 / 116 40% 1 22.05.2028 -
Daniel Banjaqui Benfica Aktiv 136 / 133 40% 3 21.05.2028 -
Josh Nichols Oldham Athletic Aktiv 124 / 135 40% 4 20.05.2028 -
Abubakar Adams Aduana Stars Aktiv 76 / 96 40% 3 20.05.2028 -
Ayden Heaven Portsmouth Aktiv 145 / 142 40% 5 19.05.2028 -
Andrey Ivlev Nizhniy Novgorod Aktiv 107 / 123 40% 2 19.05.2028 -
Ángel Aguayo Sol de America Aktiv 93 / 91 40% 1 18.05.2028 -
Edison Gruezo Guadalajara Aktiv 99 / 110 40% 1 17.05.2028 -
William Osula Wrexham Aktiv 138 / 148 40% 1 15.05.2028 -
Richard Koné Queens Park Rangers Aktiv 126 / 120 40% 2 13.05.2028 -
Johnny Kenny Preston Aktiv 126 / 115 40% 3 13.05.2028 -
Denis Grigorjev Arsenal Tula Aktiv 98 / 80 40% 1 13.05.2028 -
Martim Cunha Porto Aktiv 107 / 103 40% 1 13.05.2028 -
Mamadou Doumbia Rotherham United Aktiv 130 / 133 40% 1 10.05.2028 -
Kylian Kouassi Colchester United Aktiv 91 / 95 40% 1 10.05.2028 -
Wandile Duba ASO Chlef Aktiv 132 / 104 40% 4 09.05.2028 -
Alexandr Lubnin Zenit Penza Aktiv 85 / 86 40% 2 08.05.2028 -
Ahmed Zaki Masr El Makasa Aktiv 97 / 71 40% 2 08.05.2028 -
Matija Popović Fakel Aktiv 129 / 110 40% 1 07.05.2028 -
Ilyas Ansah Hull City Aktiv 122 / 136 40% 2 04.05.2028 -
Ichem Ferrah Livorno Aktiv 109 / 128 40% 2 04.05.2028 -
Wilfried Gnonto Leeds United Aktiv 143 / 148 40% 3 03.05.2028 -
Jayden Danns Bradford City Aktiv 149 / 143 40% 1 03.05.2028 -
Carlos Gugenheim Grimsby Town Aktiv 116 / 110 40% 1 01.05.2028 -
Babis Kostoulas Oxford United Aktiv 147 / 134 40% 1 01.05.2028 -
Herculano Nabian Empoli Aktiv 115 / 109 40% 1 30.04.2028 -
Nazareno Roselli Defensa y Justicia Aktiv 125 / 126 40% 3 27.04.2028 -
Eli Junior Kroupi Bournemouth Aktiv 153 / 144 40% 3 25.04.2028 -
Musa Danjuma Umraniyespor Aktiv 100 / 110 40% 1 25.04.2028 -
Rocco Vata Watford Aktiv 140 / 131 40% 9 24.04.2028 -
Igor Tyjon Barrow AFC Aktiv 123 / 128 40% 4 24.04.2028 -
Honest Ahanor Atalanta Aktiv 130 / 130 40% 4 22.04.2028 -
Hirving Reyes Veracruz Aktiv 89 / 102 40% 1 20.04.2028 -
Emanuele Scipioni Monopoli Aktiv 122 / 109 40% 1 20.04.2028 -
Nicolò Moranduzzo Renate Aktiv 75 / 104 40% 3 18.04.2028 -
Riquelme Thompson-Jones Accrington Stanley Aktiv 95 / 106 40% 4 17.04.2028 -
Gustavo Albarracín Alavés Aktiv 101 / 138 40% 1 17.04.2028 -
Rayan Kolli Queens Park Rangers Aktiv 107 / 116 40% 1 16.04.2028 -
Admir Bristrić Cambridge United Aktiv 97 / 100 40% 1 14.04.2028 -
Luca Williams-Barnett Walsall Aktiv 136 / 126 40% 2 13.04.2028 -
Miguel Falé Pacos de Ferreira Aktiv 124 / 105 40% 1 13.04.2028 -
Inti Borghetto Patronato Aktiv 97 / 99 40% 2 11.04.2028 -
Fabián Correa Barranquilla Aktiv 84 / 96 40% 1 09.04.2028 -
Malik Mothersille Stockport County Aktiv 107 / 122 40% 2 07.04.2028 -
Bashar Musa US Forces Armees Aktiv 104 / 100 40% 1 07.04.2028 -
Mathys Tel Tottenham Aktiv 166 / 152 40% 1 04.04.2028 -
Dmytro Strilchuk Podillia Aktiv 90 / 93 40% 1 02.04.2028 -
Sheriff Stowe Military Production Aktiv 72 / 79 40% 1 02.04.2028 -
Tyler Fletcher Rotherham United Aktiv 122 / 122 40% 1 28.03.2028 -
Leo Castledine Middlesbrough Aktiv 119 / 139 40% 7 27.03.2028 -
Thiago Silvero Vélez Aktiv 138 / 128 40% 2 25.03.2028 -
Jorthy Mokio ADO Den Haag Aktiv 118 / 138 40% 2 22.03.2028 -
Victor Hernandez Santa Fe Aktiv 109 / 134 40% 5 21.03.2028 -
Celías Ingenthron Platense Aktiv 125 / 119 40% 2 18.03.2028 -
Josh Acheampong Everton Aktiv 129 / 158 40% 3 17.03.2028 -
Olivier Leroux Mouscron Aktiv 115 / 112 40% 3 14.03.2028 -
Giovanni Leoni Lincoln City Aktiv 139 / 155 40% 1 09.03.2028 -
Tobiáš Pališčák Zlin Aktiv 101 / 99 40% 1 01.03.2028 -
Elías Peralta Lokomotivi Aktiv 115 / 93 40% 1 29.02.2028 -
Marezi Portsmouth Aktiv 112 / 120 40% 4 23.02.2028 -
Daniel Jebbison Bournemouth Aktiv 134 / 117 40% 1 21.02.2028 -
Gabriel Monjes Hamrun Spartans Aktiv 82 / 99 40% 1 17.02.2028 -
Ruben Ramos LA Galaxy Aktiv 115 / 94 40% 1 17.02.2028 -
Gael Moreno Morelia Aktiv 56 / 71 40% 1 16.02.2028 -
Matvey Bardachev Zenit Aktiv 111 / 112 40% 1 16.02.2028 -
Sindre Walle Egeli Udinese Aktiv 134 / 132 40% 1 16.02.2028 -
Jorge Cabezas Hurtado Watford Aktiv 128 / 111 40% 1 12.02.2028 -
Zane Albarus Shrewsbury Town Aktiv 97 / 118 40% 1 07.02.2028 -
Artem Nosachev Spartak Moscow Aktiv 78 / 92 40% 1 07.02.2028 -
Marco Miori Alvarado Aktiv 105 / 107 40% 2 26.01.2028 -
Bautista Tomatis Racing Aktiv 110 / 114 40% 1 26.01.2028 -
Sebastián Camacho Uruguay Montevideo Aktiv 99 / 101 40% 1 19.01.2028 -
Exon Arzú Carabobo Aktiv 111 / 97 40% 1 07.01.2028 -
Rodrigo Cabrera Aktiv 88 / 93 55% 1 01.12.2027 -
Nahuel Leivas Montevideo City Torque Aktiv 111 / 105 40% 1 28.11.2027 -
Diego Vargas Universidad de Concepcion Aktiv 104 / 100 40% 3 21.11.2027 -
Juan Camilo Córdoba Deportivo Pereira Aktiv 97 / 89 40% 3 17.11.2027 -
Gideon Manaseh Ikorodu City Aktiv 76 / 98 40% 1 17.11.2027 -
Joelson Gamarra General Caballero Aktiv 62 / 86 40% 1 14.11.2027 -
Agustín Obregón River Plate Aktiv 107 / 112 40% 2 13.11.2027 -
Tiago Gordillo San Miguel Aktiv 81 / 95 40% 1 12.11.2027 -
Hugo Rojas Instituto Aktiv 111 / 104 40% 1 12.11.2027 -
David Damboama El-Kanemi Warriors Aktiv 76 / 101 40% 1 11.11.2027 -
Ivan Borges Defensores Aktiv 76 / 82 40% 2 10.11.2027 -
Joel Ezra Enyimba Aktiv 81 / 100 40% 1 10.11.2027 -
Matias Siltanen Malmo FF Aktiv 130 / 115 40% 2 08.11.2027 -
Colin Guske Orlando City Aktiv 99 / 87 40% 1 05.11.2027 -
Godswill Kenu Bayelsa United Aktiv 63 / 69 40% 1 30.10.2027 -
Zahir Ibarra Defensa y Justicia Aktiv 97 / 107 40% 1 29.10.2027 -
Máximo Munarriz San Telmo Aktiv 86 / 102 40% 1 25.10.2027 -
Halam Loboa Sevilla Aktiv 129 / 127 40% 1 25.10.2027 -
Olaniyi Saheed Kwara United Aktiv 89 / 112 40% 1 17.10.2027 -
Emmanuel Ndubueze Shooting Stars Aktiv 80 / 83 40% 1 08.10.2027 -
Alex Verón Vélez Aktiv 109 / 127 40% 1 06.10.2027 -
Rodrigo Pastorini Artigas Aktiv 86 / 98 55% 1 12.07.2027 -
Calum Kavanagh Oldham Athletic Aktiv 100 / 107 40% 4 28.05.2027 -
Seb Palmer-Houlden Gillingham Aktiv 80 / 107 40% 1 28.05.2027 -
Filippo Distefano Empoli Aktiv 127 / 129 40% 1 16.05.2027 -
Mees Rijks Bristol Rovers Aktiv 128 / 109 40% 4 13.05.2027 -
Jay Stansfield Birmingham Aktiv 135 / 124 40% 3 13.05.2027 -
Bradley Ihionvien Peterborough United Aktiv 69 / 75 40% 3 12.05.2027 -
David Romero Parma Aktiv 131 / 113 40% 1 12.05.2027 -
Dale Taylor Blackpool Aktiv 108 / 98 40% 6 07.05.2027 -
Giorgi Kvernadze Frosinone Aktiv 141 / 126 40% 2 07.05.2027 -
Job Ochieng Real Sociedad Aktiv 124 / 112 40% 4 06.05.2027 -
Ekain Orobengoa Real Sociedad Aktiv 100 / 93 40% 1 01.05.2027 -
Joe Gelhardt Hull City Aktiv 136 / 142 40% 3 27.04.2027 -
Giorgos Koutsias Famalicao Aktiv 105 / 132 40% 1 23.04.2027 -
Mohamed-Ali Cho Hull City Aktiv 141 / 138 40% 1 15.04.2027 -
Ben Ahmed Kohili Paradou Aktiv 121 / 111 40% 1 12.04.2027 -
George Brown Sheffield Wednesday Aktiv 115 / 120 40% 1 11.04.2027 -
Matthew Dennis Notts County Aktiv 92 / 108 40% 1 14.03.2027 -
Christian Saydee Wigan Athletic Aktiv 97 / 98 40% 2 07.03.2027 -
Peter Itodo Metalist Aktiv 119 / 133 40% 1 07.03.2027 -
José Martínes CSKA 1948 Aktiv 123 / 96 40% 1 17.02.2027 -
Mateus Mané Burnley Aktiv 127 / 124 40% 1 14.02.2027 -
Stiven Shpendi Empoli Aktiv 137 / 127 40% 1 10.02.2027 -
Miloš Jovičić Zabbar St. Patrick Aktiv 99 / 91 40% 1 01.02.2027 -
Tadeo Aguiar La Luz Aktiv 88 / 90 55% 1 07.12.2026 -
Williams Mabunda Ajax Cape Town Aktiv 106 / 120 40% 2 30.11.2026 -
Ola Solbakken FC Nordsjaelland Aktiv 141 / 131 40% 1 25.11.2026 -
Ammar Ramadan DAC Dunajska Streda Aktiv 134 / 127 40% 1 25.11.2026 -
Lukas Gütlbauer Wolfsberger AC Aktiv 110 / 108 40% 1 24.11.2026 -
Shamal George Doncaster Rovers Aktiv 103 / 99 40% 1 23.11.2026 -
Angus Gunn San Jose Earthquakes Aktiv 116 / 115 40% 2 22.11.2026 -
Đorđe Nikolić Cukaricki Aktiv 107 / 108 40% 1 22.11.2026 -
Alfie Whiteman Newport County Aktiv 91 / 92 40% 1 21.11.2026 -
Alexis Steimbach Gimnasia La Plata Aktiv 123 / 109 40% 1 20.11.2026 -
Jáder Valencia Deportes Tolima Aktiv 106 / 113 40% 1 20.11.2026 -
Patrick Schulte Columbus Crew Aktiv 119 / 105 40% 2 19.11.2026 -
Arthur Beroe Aktiv 110 / 107 40% 1 19.11.2026 -
Kévin Denkey FC Cincinnati Aktiv 127 / 131 40% 4 18.11.2026 -
Gorka Gorosabel Real Sociedad Aktiv 123 / 101 40% 1 18.11.2026 -
Matías Pellegrini Vélez Aktiv 130 / 120 40% 1 16.11.2026 -
Roman Celentano FC Cincinnati Aktiv 116 / 133 40% 1 13.11.2026 -
Assad Al Hamlawi Universitatea Craiova Aktiv 105 / 108 40% 1 12.11.2026 -
Tobias Bech AGF Aktiv 121 / 141 40% 1 11.11.2026 -
Tadeo Allende Inter Miami CF Aktiv 135 / 121 40% 1 10.11.2026 -
Bongani Zungu Ajax Cape Town Aktiv 136 / 117 40% 1 05.11.2026 -
Marcelo Torres Gimnasia La Plata Aktiv 116 / 129 40% 1 04.11.2026 -
Armstrong Oko-Flex Levski Aktiv 111 / 127 40% 1 04.11.2026 -
Sota Kitano Red Bull Salzburg Aktiv 118 / 131 40% 1 04.11.2026 -
Thomas Carrique Andorra Aktiv 120 / 122 40% 1 01.11.2026 -
Miguel Vargas Universitario Aktiv 124 / 123 40% 1 31.10.2026 -
Cristopher Varela Deportivo La Guaira Aktiv 103 / 107 40% 1 30.10.2026 -
Tomás Ahumada Audax Italiano Aktiv 98 / 104 40% 1 30.10.2026 -
Jens Petter Hauge Bodo/Glimt Aktiv 150 / 137 40% 1 29.10.2026 -
Oliver Petersen Odd Aktiv 123 / 113 40% 1 27.10.2026 -
John Pulskamp Sporting Kansas City Aktiv 125 / 98 40% 1 27.10.2026 -
Gino Santilli Kalmar FF Aktiv 130 / 123 40% 1 24.10.2026 -
Diego Romero Universitario Aktiv 128 / 127 40% 1 23.10.2026 -
Omar Carabalí O'Higgins Aktiv 97 / 99 40% 1 22.10.2026 -
Angel Zamudio Sport Huancayo Aktiv 105 / 107 40% 1 22.10.2026 -
Justo Giani Umraniyespor Aktiv 133 / 117 40% 1 19.10.2026 -
Jackson Muleka Konyaspor Aktiv 127 / 109 40% 1 19.10.2026 -
Diego Enríquez Sporting Cristal Aktiv 129 / 133 40% 1 18.10.2026 -
Ángel Tecpanécatl Chikhura Aktiv 116 / 96 40% 1 06.10.2026 -
Alejandro Pozo Standard Liege Aktiv 137 / 136 40% 1 06.10.2026 -
Leonardo Campana New England Revolution Aktiv 109 / 112 40% 1 01.10.2026 -
Victor Olatunji Real Salt Lake Aktiv 97 / 122 40% 1 27.09.2026 -
Alonso Martínez New York City Aktiv 116 / 127 40% 1 21.09.2026 -
Duk Atlas Aktiv 129 / 103 40% 1 16.09.2026 -
Juan Cruz de los Santos Nacional Aktiv 120 / 134 40% 1 16.09.2026 -
Tomás Ángel FC Midtjylland Aktiv 116 / 114 40% 1 14.09.2026 -
Luciano Cosentino Wanderers Aktiv 117 / 126 40% 1 14.09.2026 -
Bénie Traoré New York City Aktiv 111 / 110 40% 1 11.09.2026 -
Joaquín Tobio Burgos Pachuca Aktiv 111 / 131 40% 1 11.09.2026 -
Iván Maggi Sportivo Luqueno Aktiv 113 / 117 40% 1 09.09.2026 -
Juan Romero Olimpia Aktiv 107 / 115 40% 1 08.09.2026 -
Kevin Velasco Puebla Aktiv 132 / 103 40% 1 08.09.2026 -
Adolfo Muñoz UTC Aktiv 123 / 117 40% 1 07.08.2026 -
Jorge Obregón Deportivo Pasto Aktiv 116 / 110 40% 1 05.08.2026 -
Alan Mozo Pachuca Aktiv 138 / 140 40% 1 04.08.2026 -
Brian Rodríguez Club America Aktiv 139 / 140 40% 1 04.08.2026 -
Tomás Fernández Aldosivi Aktiv 128 / 115 40% 1 02.08.2026 -
José Barreto Quilmes Aktiv 112 / 108 40% 1 01.08.2026 -